Time;durP1;ratioP1;P1;durP2;ratioP2;P2;SDS_P1;SDS_P2;PMS_P1;PMS_P2;Temp;Humidity;BMP_temperature;BMP_pressure;BME280_temperature;BME280_humidity;BME280_pressure;Samples;Min_cycle;Max_cycle;Signal;HPM_P1;HPM_P2
2021/07/12 00:01:46;;;;;;;7.85;3.47;;;16.20;80.40;;;14.97;78.68;95947.53;4981285;28;20061;-71
2021/07/12 00:04:13;;;;;;;7.10;3.17;;;16.20;80.50;;;14.97;79.27;95944.88;4983615;28;20089;-70
2021/07/12 00:06:38;;;;;;;4.05;3.20;;;16.10;80.80;;;14.97;79.47;95947.53;4987992;28;20616;-71
2021/07/12 00:09:04;;;;;;;4.55;3.35;;;16.20;80.80;;;14.93;79.88;95943.66;4956069;28;20026;-71
2021/07/12 00:11:31;;;;;;;5.63;3.90;;;16.10;80.90;;;14.89;78.56;95942.50;4961978;28;20037;-71
2021/07/12 00:13:56;;;;;;;8.45;4.05;;;16.10;81.10;;;14.84;80.00;95939.69;4973432;28;20443;-71
2021/07/12 00:16:22;;;;;;;7.50;3.78;;;16.10;81.30;;;14.83;80.01;95943.38;4996383;28;20038;-71
2021/07/12 00:18:48;;;;;;;4.85;3.60;;;16.10;81.50;;;14.84;79.91;95939.69;4969759;28;20041;-71
2021/07/12 00:21:14;;;;;;;5.55;3.53;;;16.10;81.50;;;14.82;80.21;95936.47;4980078;28;20041;-71
2021/07/12 00:23:40;;;;;;;7.63;4.10;;;16.10;81.50;;;14.78;79.17;95933.44;4980609;28;20129;-71
2021/07/12 00:26:05;;;;;;;8.95;3.63;;;16.00;81.60;;;14.75;80.47;95931.25;4994068;28;20046;-71
2021/07/12 00:28:32;;;;;;;6.30;4.25;;;16.00;81.90;;;14.76;79.43;95932.84;4991768;28;20053;-71
2021/07/12 00:30:57;;;;;;;6.82;3.70;;;16.00;82.00;;;14.75;80.29;95925.13;4964209;28;20034;-71
2021/07/12 00:33:23;;;;;;;11.05;3.72;;;16.00;82.00;;;14.73;81.39;95932.50;4993222;28;20585;-71
2021/07/12 00:35:49;;;;;;;6.00;3.78;;;16.00;81.70;;;14.70;81.20;95926.56;4995378;28;22346;-71
2021/07/12 00:38:14;;;;;;;6.30;3.75;;;15.90;81.70;;;14.68;81.22;95928.63;4974869;28;20529;-71
2021/07/12 00:40:40;;;;;;;5.55;3.50;;;16.00;81.70;;;14.68;80.28;95925.19;4997027;28;20070;-71
2021/07/12 00:43:06;;;;;;;6.60;3.60;;;15.90;81.70;;;14.66;79.90;95922.75;4997601;28;20036;-70
2021/07/12 00:45:32;;;;;;;6.05;3.63;;;15.90;81.60;;;14.66;80.74;95916.66;4998052;28;20070;-71
2021/07/12 00:47:58;;;;;;;7.05;4.10;;;15.90;81.60;;;14.62;79.40;95913.63;4957914;28;20569;-71
2021/07/12 00:50:27;;;;;;;6.65;3.97;;;15.90;81.30;;;14.58;80.11;95909.81;4980398;28;20049;-71
2021/07/12 00:52:53;;;;;;;4.43;3.50;;;15.80;81.10;;;14.55;81.03;95910.25;4972780;28;20042;-71
2021/07/12 00:55:33;;;;;;;4.82;3.72;;;15.80;81.50;;;14.54;80.68;95902.53;5001522;28;20104;-71
2021/07/12 00:57:59;;;;;;;6.07;3.87;;;15.80;81.70;;;14.51;81.21;95909.06;4961116;28;20544;-71
2021/07/12 01:00:25;;;;;;;5.78;4.22;;;15.80;81.90;;;14.51;81.01;95898.47;4971718;28;20416;-71
2021/07/12 01:02:51;;;;;;;8.27;4.80;;;15.80;82.10;;;14.50;80.50;95899.50;4958104;28;20038;-71
2021/07/12 01:05:19;;;;;;;6.65;4.60;;;15.80;82.50;;;14.52;80.79;95889.50;4986759;28;20038;-71
2021/07/12 01:07:45;;;;;;;9.07;5.13;;;15.80;82.60;;;14.49;82.14;95887.31;5001522;28;20478;-71
2021/07/12 01:10:12;;;;;;;10.20;5.10;;;15.80;82.40;;;14.43;80.93;95874.94;4990097;28;20044;-71
2021/07/12 01:13:03;;;;;;;8.07;4.90;;;15.80;81.90;;;14.45;81.39;95887.94;4966098;28;20529;-71
2021/07/12 01:15:38;;;;;;;8.15;5.35;;;15.70;81.60;;;14.38;81.49;95882.69;4993769;28;20510;-71
2021/07/12 01:18:40;;;;;;;7.07;5.22;;;15.60;81.90;;;14.35;82.24;95880.47;4954751;28;20079;-71
2021/07/12 01:21:52;;;;;;;5.03;4.47;;;15.60;82.10;;;14.30;82.23;95889.06;4971275;28;20045;-71
2021/07/12 01:24:36;;;;;;;;;;;15.60;82.10;;;14.24;82.52;95881.97;4995730;28;20526;-70
2021/07/12 01:27:33;;;;;;;6.45;5.53;;;15.50;82.50;;;14.20;82.91;95882.63;5016818;28;20369;-71
2021/07/12 01:30:15;;;;;;;6.53;5.35;;;15.50;83.20;;;14.19;82.34;95881.81;4993479;28;20104;-71
2021/07/12 01:33:17;;;;;;;9.40;6.15;;;15.50;83.40;;;14.20;82.92;95886.09;4997499;28;20053;-71
2021/07/12 01:36:02;;;;;;;6.82;5.78;;;15.50;83.50;;;14.18;82.64;95876.75;4990819;28;20042;-71
2021/07/12 01:38:55;;;;;;;10.13;5.53;;;15.60;83.30;;;14.17;82.82;95875.13;4997175;28;20096;-71
2021/07/12 01:41:51;;;;;;;8.40;5.90;;;15.50;83.20;;;14.16;83.30;95871.69;4995217;28;20045;-71
2021/07/12 01:44:49;;;;;;;6.13;5.43;;;15.50;83.30;;;14.15;83.69;95875.34;4960688;28;20499;-71
2021/07/12 01:47:18;;;;;;;7.10;5.47;;;15.50;82.90;;;14.12;82.40;95872.34;5000974;28;20051;-71
2021/07/12 01:49:54;;;;;;;9.23;5.55;;;15.50;82.90;;;14.12;82.63;95874.97;4960425;28;20041;-71
2021/07/12 01:52:42;;;;;;;8.65;5.55;;;15.40;83.00;;;14.11;81.73;95871.53;4990836;28;20273;-71
2021/07/12 01:55:47;;;;;;;10.05;6.18;;;15.40;82.90;;;14.10;83.41;95860.13;4973707;28;20034;-71
2021/07/12 01:58:38;;;;;;;8.60;5.07;;;15.40;83.20;;;14.08;83.86;95859.53;4985332;28;20084;-71
2021/07/12 02:01:05;;;;;;;10.55;5.43;;;15.40;83.20;;;14.08;82.03;95854.25;4989677;28;20711;-71
2021/07/12 02:03:31;;;;;;;11.77;6.07;;;15.40;83.30;;;14.09;82.03;95853.22;4999377;28;20044;-71
2021/07/12 02:05:58;;;;;;;10.35;6.07;;;15.40;83.30;;;14.12;82.27;95856.47;4963055;28;20030;-70
2021/07/12 02:08:24;;;;;;;8.38;6.10;;;15.50;83.10;;;14.13;83.17;95852.78;4973906;28;20505;-70
2021/07/12 02:10:51;;;;;;;9.82;7.00;;;15.40;83.20;;;14.09;82.20;95847.94;4963463;28;20050;-71
2021/07/12 02:13:18;;;;;;;11.38;6.85;;;15.40;83.20;;;14.08;83.07;95835.75;4964437;28;20038;-71
2021/07/12 02:15:47;;;;;;;10.27;7.10;;;15.40;83.30;;;14.08;83.24;95835.75;4985200;28;20042;-71
2021/07/12 02:18:17;;;;;;;8.77;7.55;;;15.40;83.30;;;14.07;83.49;95834.13;4982008;28;20045;-71
2021/07/12 02:20:44;;;;;;;12.10;7.93;;;15.40;83.60;;;14.07;83.06;95833.31;4982568;28;20057;-71
2021/07/12 02:23:10;;;;;;;8.73;7.00;;;15.40;83.70;;;14.04;82.97;95833.75;4964929;28;20172;-71
2021/07/12 02:25:36;;;;;;;8.45;6.95;;;15.40;83.80;;;14.03;82.71;95837.41;4977293;28;20046;-70
2021/07/12 02:28:03;;;;;;;24.88;6.63;;;15.40;83.90;;;13.98;82.73;95830.13;4974646;28;20450;-70
2021/07/12 02:30:28;;;;;;;10.85;6.80;;;15.30;84.10;;;13.98;83.42;95834.59;4978180;28;20054;-70
2021/07/12 02:32:54;;;;;;;8.73;6.38;;;15.30;84.10;;;13.96;83.04;95832.19;4962007;28;20042;-71
2021/07/12 02:35:20;;;;;;;7.30;6.60;;;15.30;84.20;;;13.97;83.34;95828.50;4962712;28;20038;-71
2021/07/12 02:37:46;;;;;;;13.07;6.85;;;15.30;84.10;;;13.96;83.71;95821.59;5000225;28;20037;-71
2021/07/12 02:40:15;;;;;;;10.10;6.68;;;15.40;84.10;;;13.96;83.66;95821.59;4987329;28;20050;-71
2021/07/12 02:42:42;;;;;;;9.85;6.70;;;15.40;84.10;;;13.96;83.30;95821.59;4986770;28;20127;-71
2021/07/12 02:45:08;;;;;;;8.63;6.43;;;15.30;84.10;;;13.95;84.25;95822.63;4984933;28;20034;-71
2021/07/12 02:47:35;;;;;;;8.80;6.63;;;15.30;84.10;;;13.96;83.54;95818.94;4959362;28;20154;-71
2021/07/12 02:50:05;;;;;;;12.02;6.88;;;15.40;84.00;;;13.95;83.16;95814.69;4966569;28;20673;-71
2021/07/12 02:52:47;;;;;;;9.07;7.15;;;15.40;83.90;;;13.98;83.84;95822.19;4987089;28;20092;-70
2021/07/12 02:55:12;;;;;;;26.80;8.32;;;15.40;84.10;;;13.96;84.51;95812.84;4975384;28;20052;-71
2021/07/12 02:57:38;;;;;;;11.38;8.15;;;15.40;84.30;;;13.97;83.45;95819.75;4998595;28;20477;-71
2021/07/12 03:00:06;;;;;;;9.32;7.80;;;15.30;84.40;;;13.98;84.43;95816.09;4997955;28;20176;-71
2021/07/12 03:02:32;;;;;;;11.90;8.35;;;15.40;84.60;;;14.01;84.84;95829.69;4970603;28;20035;-70
2021/07/12 03:04:57;;;;;;;15.35;7.88;;;15.40;84.70;;;14.02;85.34;95826.00;4991851;28;20482;-70
2021/07/12 03:07:33;;;;;;;11.00;7.82;;;15.40;84.70;;;14.03;85.70;95821.53;4957866;28;20034;-71
2021/07/12 03:10:08;;;;;;;16.25;8.55;;;15.50;84.80;;;14.05;85.04;95828.25;4979718;28;20077;-69
2021/07/12 03:12:53;;;;;;;38.92;9.63;;;15.50;84.80;;;14.08;86.10;95834.94;4967459;28;20046;-69
2021/07/12 03:15:25;;;;;;;15.35;7.95;;;15.50;84.90;;;14.08;84.31;95825.16;4968739;28;20029;-69
2021/07/12 03:17:51;;;;;;;8.88;7.80;;;15.40;85.00;;;14.10;85.27;95825.75;4978889;28;20689;-69
2021/07/12 03:20:17;;;;;;;10.77;7.75;;;15.50;84.90;;;14.12;84.77;95819.44;4976810;28;20402;-70
2021/07/12 03:22:46;;;;;;;13.85;8.23;;;15.50;84.90;;;14.12;85.24;95824.72;4983024;28;20042;-70
2021/07/12 03:25:12;;;;;;;34.38;8.20;;;15.50;84.80;;;14.10;85.77;95828.41;4971929;28;20027;-71
2021/07/12 03:27:38;;;;;;;17.40;8.07;;;15.50;84.80;;;14.07;85.05;95823.56;4957067;28;20402;-71
2021/07/12 03:30:05;;;;;;;18.30;7.78;;;15.50;84.80;;;14.05;85.08;95822.97;4957753;28;20133;-71
2021/07/12 03:32:31;;;;;;;15.10;9.00;;;15.50;84.80;;;14.05;85.69;95825.59;4977089;28;20100;-71
2021/07/12 03:34:57;;;;;;;12.63;7.65;;;15.50;84.90;;;14.06;85.26;95829.88;4964477;28;20034;-71
2021/07/12 03:37:23;;;;;;;28.48;7.75;;;15.50;84.70;;;14.05;85.72;95830.09;4972577;28;20034;-71
2021/07/12 03:39:49;;;;;;;14.98;8.02;;;15.50;84.60;;;14.06;84.48;95832.50;4960624;28;20457;-71
2021/07/12 03:42:16;;;;;;;11.48;8.32;;;15.50;84.70;;;14.04;85.57;95824.00;4968089;28;20057;-72
2021/07/12 03:44:41;;;;;;;9.68;7.53;;;15.50;84.70;;;14.09;85.99;95832.06;4951016;28;20152;-71
2021/07/12 03:47:07;;;;;;;12.80;8.35;;;15.50;84.60;;;14.10;85.96;95840.81;4979729;28;20057;-71
2021/07/12 03:49:33;;;;;;;13.93;8.18;;;15.60;84.60;;;14.05;84.77;95830.91;4998831;28;20415;-71
2021/07/12 03:51:58;;;;;;;20.45;7.90;;;15.50;84.30;;;14.03;85.02;95843.53;5000261;28;20566;-71
2021/07/12 03:54:24;;;;;;;9.98;7.80;;;15.50;84.10;;;14.04;84.08;95839.84;4984004;28;20451;-71
2021/07/12 03:56:50;;;;;;;17.38;7.93;;;15.50;84.20;;;14.06;85.09;95840.44;4952405;28;20408;-71
2021/07/12 03:59:16;;;;;;;11.88;8.30;;;15.50;84.30;;;14.05;85.07;95833.53;4997515;28;20065;-72
2021/07/12 04:01:42;;;;;;;19.23;8.23;;;15.50;84.30;;;14.02;84.50;95831.31;5007480;28;20045;-69
2021/07/12 04:04:08;;;;;;;9.85;8.07;;;15.60;84.20;;;14.03;84.97;95826.81;4978517;28;20406;-69
2021/07/12 04:06:33;;;;;;;14.68;7.93;;;15.60;84.20;;;14.03;85.57;95822.38;4978399;28;20046;-69
2021/07/12 04:09:00;;;;;;;14.68;7.13;;;15.50;84.10;;;14.02;84.33;95818.06;4971698;28;20038;-69
2021/07/12 04:11:31;;;;;;;8.07;7.38;;;15.60;84.10;;;14.05;84.52;95824.78;4992287;28;20034;-71
2021/07/12 04:13:57;;;;;;;9.23;7.25;;;15.60;84.20;;;14.06;85.06;95821.13;4993730;28;20580;-70
2021/07/12 04:16:23;;;;;;;8.48;7.40;;;15.60;83.90;;;14.09;84.77;95826.78;4984420;28;20087;-71
2021/07/12 04:18:51;;;;;;;10.73;7.45;;;15.60;83.90;;;14.10;84.77;95822.31;4963905;28;20038;-75
2021/07/12 04:21:17;;;;;;;7.93;6.95;;;15.60;83.90;;;14.15;85.18;95821.66;4966382;28;20046;-72
2021/07/12 04:23:42;;;;;;;7.35;6.60;;;15.60;83.80;;;14.15;84.48;95813.72;4991091;28;20073;-75
2021/07/12 04:26:08;;;;;;;9.80;7.78;;;15.70;83.60;;;14.13;84.82;95807.84;4986188;28;20549;-74
2021/07/12 04:28:34;;;;;;;8.07;7.28;;;15.60;83.40;;;14.13;84.39;95799.91;4982435;28;20085;-73
2021/07/12 04:30:59;;;;;;;7.65;6.95;;;15.60;83.40;;;14.13;85.12;95794.59;4984992;28;20038;-74
2021/07/12 04:33:26;;;;;;;9.23;7.50;;;15.70;83.50;;;14.14;84.96;95798.88;4975881;28;20038;-71
2021/07/12 04:35:53;;;;;;;7.50;6.80;;;15.70;83.30;;;14.17;85.27;95804.53;4959449;28;20049;-70
2021/07/12 04:38:18;;;;;;;12.02;6.85;;;15.70;83.30;;;14.19;85.30;95793.72;4993540;28;20034;-70
2021/07/12 04:40:44;;;;;;;7.90;6.82;;;15.70;82.80;;;14.19;85.23;95797.19;4983940;28;20044;-70
2021/07/12 04:43:10;;;;;;;8.27;7.05;;;15.70;83.00;;;14.22;84.37;95806.50;4978243;28;20034;-70
2021/07/12 04:45:36;;;;;;;12.23;7.35;;;15.70;83.00;;;14.19;84.72;95809.59;4990291;28;20026;-71
2021/07/12 04:48:01;;;;;;;8.30;7.50;;;15.80;83.10;;;14.22;84.63;95809.16;4987635;28;20050;-71
2021/07/12 04:50:27;;;;;;;12.23;7.45;;;15.80;83.30;;;14.23;84.57;95808.13;4988836;28;20053;-71
2021/07/12 04:52:53;;;;;;;7.10;6.40;;;15.80;83.30;;;14.25;85.24;95803.44;4980335;28;20127;-71
2021/07/12 04:55:19;;;;;;;10.05;7.20;;;15.90;83.30;;;14.29;85.11;95800.16;4976216;28;20112;-71
2021/07/12 04:57:46;;;;;;;7.95;6.95;;;15.90;83.30;;;14.33;85.08;95801.31;4980102;28;20502;-73
2021/07/12 05:00:12;;;;;;;9.77;6.63;;;16.00;83.40;;;14.36;84.87;95805.34;4993191;28;20038;-72
2021/07/12 05:02:39;;;;;;;8.35;6.53;;;16.00;83.20;;;14.39;85.13;95805.72;4971590;28;20045;-71
2021/07/12 05:05:07;;;;;;;7.70;6.43;;;16.00;83.10;;;14.42;85.02;95793.88;5005092;28;20058;-71
2021/07/12 05:07:33;;;;;;;8.60;6.15;;;16.00;83.00;;;14.46;84.73;95792.44;4987711;28;20457;-71
2021/07/12 05:09:58;;;;;;;12.15;5.97;;;16.10;83.10;;;14.46;85.23;95784.50;4992736;28;20035;-71
2021/07/12 05:12:24;;;;;;;6.75;5.65;;;16.10;82.70;;;14.48;84.71;95787.75;5002840;28;20042;-70
2021/07/12 05:14:50;;;;;;;6.97;5.85;;;16.10;82.90;;;14.53;84.96;95795.03;4994080;28;20084;-69
2021/07/12 05:17:15;;;;;;;15.60;5.85;;;16.20;82.90;;;14.58;84.80;95792.53;4978351;28;20096;-69
2021/07/12 05:19:41;;;;;;;13.40;5.95;;;16.20;82.80;;;14.56;84.95;95787.47;5008395;28;20571;-68
2021/07/12 05:22:07;;;;;;;10.02;6.07;;;16.30;82.60;;;14.61;84.67;95786.78;4995921;28;20061;-68
2021/07/12 05:24:33;;;;;;;14.95;6.25;;;16.30;82.70;;;14.59;84.94;95789.66;4994533;28;20666;-69
2021/07/12 05:27:00;;;;;;;7.53;5.63;;;16.30;82.50;;;14.63;84.45;95790.84;4963847;28;20034;-71
2021/07/12 05:29:25;;;;;;;7.00;5.55;;;16.30;82.80;;;14.66;85.22;95794.88;4996391;28;20049;-70
2021/07/12 05:31:51;;;;;;;6.95;5.40;;;16.40;82.80;;;14.71;84.55;95797.69;4988212;28;20030;-72
2021/07/12 05:34:17;;;;;;;11.70;5.63;;;16.50;82.90;;;14.79;84.58;95799.22;4990633;28;20131;-66
2021/07/12 05:36:44;;;;;;;6.55;5.30;;;16.50;82.20;;;14.80;84.23;95800.84;4990005;28;20112;-66
2021/07/12 05:39:09;;;;;;;8.77;5.03;;;16.60;82.40;;;14.82;84.66;95801.41;4998452;28;20035;-73
2021/07/12 05:41:35;;;;;;;9.85;4.82;;;16.60;82.00;;;14.88;83.68;95790.72;4990923;28;20525;-72
2021/07/12 05:44:01;;;;;;;7.60;4.82;;;16.70;81.90;;;14.94;84.48;95810.25;4978889;28;20057;-73
2021/07/12 05:46:26;;;;;;;9.10;4.60;;;16.70;81.60;;;14.99;83.79;95797.13;4974036;28;20560;-73
2021/07/12 05:48:52;;;;;;;6.90;4.50;;;16.80;81.10;;;15.00;83.84;95802.19;4994014;28;20598;-75
2021/07/12 05:51:18;;;;;;;43.75;5.40;;;16.80;81.00;;;14.99;84.64;95797.13;4958951;28;20058;-73
2021/07/12 05:53:44;;;;;;;6.05;4.68;;;16.80;80.70;;;15.00;84.25;95790.81;4958022;28;20455;-77
2021/07/12 05:56:09;;;;;;;5.30;4.45;;;16.80;81.00;;;15.10;83.18;95795.53;4958281;28;20423;-75
2021/07/12 05:58:35;;;;;;;5.20;4.72;;;16.90;81.10;;;15.14;83.72;95799.34;5003578;28;20493;-72
2021/07/12 06:01:01;;;;;;;4.85;4.40;;;16.90;80.80;;;15.19;82.78;95794.22;5011435;28;20038;-72
2021/07/12 06:03:26;;;;;;;6.47;5.15;;;17.00;80.40;;;15.20;82.61;95796.66;4982276;28;20062;-74
2021/07/12 06:05:52;;;;;;;5.85;5.18;;;17.00;80.30;;;15.24;83.44;95792.50;4955721;28;20132;-77
2021/07/12 06:08:18;;;;;;;7.72;5.05;;;17.10;80.00;;;15.32;83.28;95799.31;4957140;28;20070;-79
2021/07/12 06:10:43;;;;;;;8.18;5.63;;;17.10;80.30;;;15.38;82.54;95794.94;4973952;28;20081;-77
2021/07/12 06:13:09;;;;;;;12.45;5.57;;;17.20;79.90;;;15.48;82.71;95790.72;4997772;28;20033;-76
2021/07/12 06:15:35;;;;;;;9.98;6.05;;;17.30;80.00;;;15.55;82.90;95783.47;4977705;28;20068;-72
2021/07/12 06:18:01;;;;;;;14.48;6.35;;;17.50;79.80;;;15.64;82.92;95776.06;4971462;28;20422;-72
2021/07/12 06:20:26;;;;;;;13.18;6.57;;;17.60;79.10;;;15.74;81.92;95781.59;4989476;28;20046;-70
2021/07/12 06:22:52;;;;;;;8.88;6.47;;;17.70;78.80;;;15.84;82.86;95784.50;4993488;28;20030;-70
2021/07/12 06:25:19;;;;;;;7.35;6.65;;;17.90;78.90;;;15.93;82.42;95785.75;4990766;28;20047;-73
2021/07/12 06:27:45;;;;;;;7.22;6.20;;;17.80;77.90;;;16.00;82.27;95774.22;4991290;28;21939;-75
2021/07/12 06:30:12;;;;;;;8.38;6.43;;;18.10;77.70;;;16.12;81.92;95777.69;4976899;28;20042;-71
2021/07/12 06:32:37;;;;;;;10.10;6.93;;;18.10;77.90;;;16.21;82.23;95773.63;4962072;28;20077;-71
2021/07/12 06:35:04;;;;;;;10.27;6.85;;;18.20;78.10;;;16.26;81.01;95768.44;4975151;28;20027;-70
2021/07/12 06:37:30;;;;;;;11.73;7.25;;;18.20;77.30;;;16.35;81.33;95777.69;4976277;28;20026;-69
2021/07/12 06:39:56;;;;;;;9.57;7.20;;;18.30;77.20;;;16.49;81.38;95765.75;4991101;28;20084;-76
2021/07/12 06:42:22;;;;;;;10.10;6.88;;;18.60;77.30;;;16.57;81.35;95769.91;4974031;28;20104;-70
2021/07/12 06:44:47;;;;;;;9.00;6.47;;;18.60;76.80;;;16.67;80.50;95778.09;5005282;28;20034;-70
2021/07/12 06:47:14;;;;;;;8.75;6.65;;;18.70;76.60;;;16.73;80.49;95776.34;4975907;28;20037;-69
2021/07/12 06:49:40;;;;;;;7.65;6.95;;;18.70;76.50;;;16.76;80.85;95773.25;4967187;28;20038;-66
2021/07/12 06:52:06;;;;;;;7.30;6.57;;;18.70;76.70;;;16.81;80.24;95776.00;4990385;28;20057;-71
2021/07/12 06:54:32;;;;;;;6.55;5.88;;;18.80;76.20;;;16.92;79.92;95767.16;4994671;28;21491;-70
2021/07/12 06:56:57;;;;;;;7.13;5.50;;;18.90;75.50;;;16.99;80.22;95765.19;4988554;28;20049;-71
2021/07/12 06:59:23;;;;;;;7.85;6.28;;;19.00;75.80;;;17.07;79.34;95762.16;4972799;28;20030;-72
2021/07/12 07:01:49;;;;;;;7.03;6.07;;;19.10;75.60;;;17.10;79.41;95764.31;4989500;28;20041;-72
2021/07/12 07:04:15;;;;;;;6.80;6.10;;;19.10;74.90;;;17.17;79.98;95763.38;4956606;28;20053;-74
2021/07/12 07:06:40;;;;;;;7.18;6.47;;;19.40;74.70;;;17.34;79.94;95764.22;5004412;28;20456;-71
2021/07/12 07:09:06;;;;;;;6.72;5.43;;;19.70;74.10;;;17.55;79.63;95765.38;5000475;28;20034;-72
2021/07/12 07:11:32;;;;;;;5.93;4.85;;;20.00;73.50;;;17.72;78.75;95764.38;4988856;28;20371;-75
2021/07/12 07:14:01;;;;;;;7.82;5.22;;;20.10;72.80;;;17.90;77.76;95763.34;4952396;28;20464;-70
2021/07/12 07:16:28;;;;;;;6.10;5.45;;;20.30;71.80;;;18.09;78.83;95765.72;5008450;28;20045;-70
2021/07/12 07:18:53;;;;;;;5.78;5.18;;;20.60;71.20;;;18.19;78.32;95758.69;4995649;28;20064;-71
2021/07/12 07:21:19;;;;;;;7.75;4.78;;;20.60;70.50;;;18.30;78.12;95746.31;5007472;28;20104;-75
2021/07/12 07:23:46;;;;;;;6.20;5.15;;;21.10;68.40;;;18.51;78.21;95747.38;4991424;28;20133;-69
2021/07/12 07:26:12;;;;;;;5.53;4.93;;;21.30;68.70;;;18.74;77.76;95736.50;5008418;28;20113;-74
2021/07/12 07:28:41;;;;;;;6.32;4.57;;;21.50;69.10;;;18.96;76.46;95733.81;4944553;28;20046;-73
2021/07/12 07:31:07;;;;;;;6.30;4.63;;;21.70;67.70;;;19.12;75.97;95727.59;4969928;28;20039;-69
2021/07/12 07:33:32;;;;;;;5.25;4.75;;;21.60;67.90;;;19.31;75.14;95730.72;5001405;28;20058;-70
2021/07/12 07:35:59;;;;;;;7.93;5.30;;;21.90;67.10;;;19.55;74.61;95725.91;4989362;28;20039;-70
2021/07/12 07:38:24;;;;;;;6.55;4.45;;;22.50;65.00;;;19.79;75.11;95726.34;4992105;28;20039;-70
2021/07/12 07:40:50;;;;;;;4.72;3.97;;;22.70;64.90;;;20.02;74.06;95731.31;4972312;28;20124;-68
2021/07/12 07:43:16;;;;;;;5.63;3.80;;;23.20;63.10;;;20.26;73.67;95725.59;4956648;28;20030;-71
2021/07/12 07:45:42;;;;;;;3.53;3.15;;;23.70;60.90;;;20.53;73.81;95730.81;4973423;28;20486;-71
2021/07/12 07:48:08;;;;;;;6.38;3.30;;;24.20;59.20;;;20.82;72.80;95733.88;4990349;28;20034;-68
2021/07/12 07:50:36;;;;;;;11.05;3.72;;;24.50;56.90;;;21.12;71.68;95728.63;4972044;28;20074;-69
2021/07/12 07:53:03;;;;;;;5.57;2.85;;;25.00;55.50;;;21.40;70.67;95725.50;4975407;28;20048;-74
2021/07/12 07:55:29;;;;;;;5.72;3.00;;;25.30;54.00;;;21.68;70.07;95726.03;4971186;28;20058;-72
2021/07/12 07:57:54;;;;;;;5.28;2.80;;;25.50;52.80;;;22.02;69.29;95731.66;4964239;28;20046;-74
2021/07/12 08:00:20;;;;;;;3.42;2.60;;;25.90;52.60;;;22.40;68.39;95721.41;4968795;28;20505;-72
2021/07/12 08:02:46;;;;;;;2.70;2.17;;;26.40;52.00;;;22.77;68.13;95718.34;4980666;28;20596;-72
2021/07/12 08:05:12;;;;;;;2.80;1.88;;;26.70;51.40;;;23.13;67.62;95709.06;4993649;28;20062;-70
2021/07/12 08:07:38;;;;;;;2.55;1.63;;;27.00;51.70;;;23.48;65.59;95701.84;5000362;28;20083;-77
2021/07/12 08:10:05;;;;;;;3.70;2.08;;;27.30;49.30;;;23.74;64.65;95702.47;4960177;28;20099;-71
2021/07/12 08:12:31;;;;;;;2.75;2.10;;;27.40;48.20;;;23.91;62.72;95696.69;4976084;28;20042;-71
2021/07/12 08:14:57;;;;;;;2.45;1.88;;;27.50;47.30;;;24.07;62.99;95696.25;4995322;28;20049;-73
2021/07/12 08:17:23;;;;;;;3.60;1.80;;;27.60;47.20;;;24.25;62.00;95694.75;4987430;28;20018;-72
2021/07/12 08:19:48;;;;;;;2.40;1.60;;;27.70;47.40;;;24.47;61.48;95686.19;4972355;28;20081;-71
2021/07/12 08:22:14;;;;;;;3.10;2.13;;;27.80;47.60;;;24.62;60.09;95680.63;4999710;28;20442;-74
2021/07/12 08:24:40;;;;;;;3.15;1.58;;;27.90;45.50;;;24.84;60.36;95677.38;5000377;28;20546;-71
2021/07/12 08:27:06;;;;;;;2.30;1.23;;;28.10;46.20;;;25.04;59.30;95665.56;4995717;28;20909;-71
2021/07/12 08:29:31;;;;;;;2.83;1.50;;;28.30;45.20;;;25.28;57.83;95665.47;5010678;28;20068;-71
2021/07/12 08:31:57;;;;;;;3.40;1.60;;;28.50;44.50;;;25.42;57.29;95669.03;4966336;28;20041;-71
2021/07/12 08:34:23;;;;;;;3.30;1.40;;;28.70;43.40;;;25.65;56.50;95659.25;4990821;28;20035;-71
2021/07/12 08:36:50;;;;;;;2.80;1.20;;;28.80;42.60;;;25.85;55.64;95658.94;4990551;28;20035;-70
2021/07/12 08:39:17;;;;;;;4.70;1.35;;;29.10;42.40;;;26.08;55.14;95646.38;5010185;28;20033;-72
2021/07/12 08:41:43;;;;;;;2.53;1.35;;;29.30;43.00;;;26.28;53.93;95650.59;5009015;28;20033;-72
2021/07/12 08:44:09;;;;;;;2.42;0.95;;;29.40;41.40;;;26.47;52.89;95654.00;5010544;28;20042;-72
2021/07/12 08:46:34;;;;;;;2.58;1.40;;;29.60;40.30;;;26.74;52.67;95647.81;4971742;28;20041;-71
2021/07/12 08:49:00;;;;;;;1.40;1.00;;;29.90;41.70;;;26.89;51.81;95635.06;5006566;28;20065;-71
2021/07/12 08:51:26;;;;;;;2.15;0.80;;;29.90;40.20;;;27.01;51.28;95632.66;4994223;28;20029;-72
2021/07/12 08:53:52;;;;;;;2.05;1.05;;;30.00;39.90;;;27.21;50.37;95634.91;4978236;28;20092;-68
2021/07/12 08:56:19;;;;;;;1.38;1.00;;;30.20;40.20;;;27.39;50.71;95639.34;5003819;28;20037;-71
2021/07/12 08:58:45;;;;;;;2.63;1.17;;;30.50;40.00;;;27.50;49.20;95636.38;4992862;28;20042;-74
2021/07/12 09:01:11;;;;;;;2.80;1.10;;;30.50;39.10;;;27.55;48.79;95644.34;4978467;28;20064;-72
2021/07/12 09:03:46;;;;;;;1.27;0.85;;;30.50;37.90;;;27.63;45.57;95640.97;4988664;28;20030;-72
2021/07/12 09:06:13;;;;;;;2.58;1.20;;;30.70;38.50;;;27.71;48.25;95643.69;4995055;28;20025;-72
2021/07/12 09:08:54;;;;;;;3.70;1.23;;;30.90;38.00;;;27.81;44.72;95631.81;4978860;28;20061;-74
2021/07/12 09:11:35;;;;;;;;;;;31.00;37.40;;;27.90;44.12;95632.69;4978935;28;20035;-70
2021/07/12 09:14:08;;;;;;;3.13;1.08;;;31.10;37.00;;;28.08;46.05;95624.66;4991651;28;19932;-71
2021/07/12 09:16:44;;;;;;;3.15;1.13;;;31.30;38.00;;;28.16;44.71;95618.47;4992671;28;20502;-67
2021/07/12 09:19:45;;;;;;;2.25;0.90;;;31.40;36.10;;;28.14;44.57;95618.78;4975533;28;20573;-76
2021/07/12 09:22:12;;;;;;;2.50;1.08;;;31.30;36.50;;;28.13;46.72;95600.19;4969689;28;20026;-72
2021/07/12 09:24:55;;;;;;;5.35;1.10;;;31.40;36.20;;;28.26;43.20;95604.69;4978612;28;20042;-74
2021/07/12 09:27:26;;;;;;;1.05;0.77;;;31.60;36.50;;;28.35;44.27;95603.63;4981068;28;20038;-71
2021/07/12 09:30:21;;;;;;;1.33;0.90;;;31.70;35.30;;;28.43;42.37;95598.53;4986285;28;20034;-70
2021/07/12 09:32:47;;;;;;;2.25;1.08;;;31.70;35.10;;;28.57;45.71;95599.22;5002259;28;20034;-71
2021/07/12 09:35:19;;;;;;;1.50;1.10;;;32.00;35.90;;;28.68;42.00;95590.47;4989503;28;20044;-72
2021/07/12 09:37:56;;;;;;;3.42;1.80;;;32.00;34.30;;;28.84;43.44;95587.31;4982236;28;20030;-73
2021/07/12 09:40:22;;;;;;;5.72;1.55;;;32.20;35.60;;;28.99;44.78;95594.22;4953891;28;20038;-70
2021/07/12 09:42:50;;;;;;;4.55;1.10;;;32.50;34.90;;;29.11;43.19;95597.84;4996865;28;20043;-73
2021/07/12 09:45:21;;;;;;;1.95;1.20;;;32.50;34.40;;;29.30;40.51;95596.72;4975076;28;20030;-72
2021/07/12 09:47:48;;;;;;;3.53;1.08;;;32.80;32.90;;;29.41;42.84;95600.69;4976622;28;20142;-71
2021/07/12 09:50:19;;;;;;;6.20;1.20;;;32.90;33.60;;;29.61;41.71;95600.06;4972756;28;20132;-73
2021/07/12 09:53:01;;;;;;;2.40;1.20;;;33.00;33.30;;;29.73;41.71;95607.53;4980609;28;20027;-73
2021/07/12 09:55:32;;;;;;;2.35;1.08;;;33.20;32.20;;;29.87;39.20;95597.28;4994201;28;20046;-72
2021/07/12 09:58:15;;;;;;;2.42;1.17;;;33.20;31.60;;;30.03;38.45;95592.94;4995992;28;20491;-75
2021/07/12 10:01:01;;;;;;;6.18;1.50;;;33.60;31.50;;;30.17;39.40;95595.44;4994337;28;20030;-72
2021/07/12 10:03:27;;;;;;;2.20;1.15;;;33.80;32.50;;;30.30;41.65;95594.41;4993460;28;20118;-71
2021/07/12 10:05:54;;;;;;;1.67;1.00;;;34.00;32.70;;;30.35;42.02;95596.97;4988837;28;20438;-72
2021/07/12 10:08:20;;;;;;;1.73;1.13;;;34.10;31.20;;;30.65;41.31;95594.25;4957912;28;20029;-73
2021/07/12 10:10:45;;;;;;;4.60;1.40;;;34.60;31.10;;;31.02;41.07;95587.94;4989342;28;20038;-72
2021/07/12 10:13:11;;;;;;;3.90;1.40;;;35.00;30.40;;;31.46;40.24;95585.66;4959273;28;20152;-72
2021/07/12 10:15:37;;;;;;;2.47;1.13;;;35.50;28.40;;;31.77;38.28;95578.97;4973239;28;20398;-71
2021/07/12 10:18:03;;;;;;;3.08;1.20;;;35.60;27.60;;;32.02;38.20;95575.13;4993425;28;20038;-72
2021/07/12 10:20:33;;;;;;;4.35;1.40;;;35.50;28.50;;;32.34;37.69;95569.94;4976467;28;20042;-74
2021/07/12 10:22:59;;;;;;;1.85;1.20;;;36.00;27.70;;;32.50;37.10;95570.84;4987308;28;20518;-72
2021/07/12 10:25:27;;;;;;;1.50;1.13;;;36.20;27.50;;;32.83;36.55;95557.91;4967526;28;20570;-74